sensor_id;sensor_type;location;lat;lon;timestamp;temperature;humidity
6244;DHT22;3155;49.940;8.450;2022-12-20T00:01:19;-0.10;99.90
6244;DHT22;3155;49.940;8.450;2022-12-20T00:03:51;-0.10;99.90
6244;DHT22;3155;49.940;8.450;2022-12-20T00:06:20;-0.10;99.90
6244;DHT22;3155;49.940;8.450;2022-12-20T00:08:53;-0.10;99.90
6244;DHT22;3155;49.940;8.450;2022-12-20T00:11:24;-0.10;99.90
6244;DHT22;3155;49.940;8.450;2022-12-20T00:13:50;-0.10;99.90
6244;DHT22;3155;49.940;8.450;2022-12-20T00:16:20;-0.10;99.90
6244;DHT22;3155;49.940;8.450;2022-12-20T00:18:51;-0.10;99.90
6244;DHT22;3155;49.940;8.450;2022-12-20T00:21:18;-0.10;99.90
6244;DHT22;3155;49.940;8.450;2022-12-20T00:23:44;-0.10;99.90
6244;DHT22;3155;49.940;8.450;2022-12-20T00:26:14;0.00;99.90
6244;DHT22;3155;49.940;8.450;2022-12-20T00:28:43;0.00;99.90
6244;DHT22;3155;49.940;8.450;2022-12-20T00:31:13;0.00;99.90
6244;DHT22;3155;49.940;8.450;2022-12-20T00:33:43;0.00;99.90
6244;DHT22;3155;49.940;8.450;2022-12-20T00:36:10;-0.10;99.90
6244;DHT22;3155;49.940;8.450;2022-12-20T00:38:39;0.00;99.90
6244;DHT22;3155;49.940;8.450;2022-12-20T00:41:14;0.00;99.90
6244;DHT22;3155;49.940;8.450;2022-12-20T00:43:41;0.00;99.90
6244;DHT22;3155;49.940;8.450;2022-12-20T00:46:09;0.10;99.90
6244;DHT22;3155;49.940;8.450;2022-12-20T00:48:37;0.10;99.90
6244;DHT22;3155;49.940;8.450;2022-12-20T00:51:10;0.10;99.90
6244;DHT22;3155;49.940;8.450;2022-12-20T00:53:37;0.00;99.90
6244;DHT22;3155;49.940;8.450;2022-12-20T00:56:05;0.00;99.90
6244;DHT22;3155;49.940;8.450;2022-12-20T00:58:33;0.00;99.90
6244;DHT22;3155;49.940;8.450;2022-12-20T01:01:00;0.00;99.90
6244;DHT22;3155;49.940;8.450;2022-12-20T01:03:27;0.00;99.90
6244;DHT22;3155;49.940;8.450;2022-12-20T01:05:57;0.00;99.90
6244;DHT22;3155;49.940;8.450;2022-12-20T01:08:25;0.00;99.90
6244;DHT22;3155;49.940;8.450;2022-12-20T01:11:00;0.00;99.90
6244;DHT22;3155;49.940;8.450;2022-12-20T01:13:28;0.00;99.90
6244;DHT22;3155;49.940;8.450;2022-12-20T01:15:55;0.00;99.90
6244;DHT22;3155;49.940;8.450;2022-12-20T01:18:24;0.00;99.90
6244;DHT22;3155;49.940;8.450;2022-12-20T01:21:00;0.00;99.90
6244;DHT22;3155;49.940;8.450;2022-12-20T01:23:27;0.00;99.90
6244;DHT22;3155;49.940;8.450;2022-12-20T01:25:53;0.00;99.90
6244;DHT22;3155;49.940;8.450;2022-12-20T01:28:22;0.00;99.90
6244;DHT22;3155;49.940;8.450;2022-12-20T01:30:49;0.00;99.90
6244;DHT22;3155;49.940;8.450;2022-12-20T01:33:16;0.00;99.90
6244;DHT22;3155;49.940;8.450;2022-12-20T01:35:53;0.10;99.90
6244;DHT22;3155;49.940;8.450;2022-12-20T01:38:19;0.10;99.90
6244;DHT22;3155;49.940;8.450;2022-12-20T01:40:46;0.10;99.90
6244;DHT22;3155;49.940;8.450;2022-12-20T01:43:14;0.00;99.90
6244;DHT22;3155;49.940;8.450;2022-12-20T01:45:42;0.00;99.90
6244;DHT22;3155;49.940;8.450;2022-12-20T01:48:10;-0.10;99.90
6244;DHT22;3155;49.940;8.450;2022-12-20T01:50:37;-0.10;99.90
6244;DHT22;3155;49.940;8.450;2022-12-20T01:53:06;-0.10;99.90
6244;DHT22;3155;49.940;8.450;2022-12-20T01:55:33;-0.10;99.90
6244;DHT22;3155;49.940;8.450;2022-12-20T01:58:09;-0.10;99.90
6244;DHT22;3155;49.940;8.450;2022-12-20T02:00:37;0.00;99.90
6244;DHT22;3155;49.940;8.450;2022-12-20T02:03:07;0.00;99.90
6244;DHT22;3155;49.940;8.450;2022-12-20T02:05:37;0.00;99.90
6244;DHT22;3155;49.940;8.450;2022-12-20T02:08:09;0.00;99.90
6244;DHT22;3155;49.940;8.450;2022-12-20T02:16:04;0.00;99.90
6244;DHT22;3155;49.940;8.450;2022-12-20T02:18:38;0.00;99.90
6244;DHT22;3155;49.940;8.450;2022-12-20T02:21:13;0.00;99.90
6244;DHT22;3155;49.940;8.450;2022-12-20T02:26:49;-0.10;99.90
6244;DHT22;3155;49.940;8.450;2022-12-20T02:34:45;-0.20;99.90
6244;DHT22;3155;49.940;8.450;2022-12-20T02:37:12;-0.10;99.90
6244;DHT22;3155;49.940;8.450;2022-12-20T02:39:40;0.00;99.90
6244;DHT22;3155;49.940;8.450;2022-12-20T02:42:17;0.00;99.90
6244;DHT22;3155;49.940;8.450;2022-12-20T02:44:50;0.00;99.90
6244;DHT22;3155;49.940;8.450;2022-12-20T02:50:49;0.10;99.90
6244;DHT22;3155;49.940;8.450;2022-12-20T02:53:18;0.00;99.90
6244;DHT22;3155;49.940;8.450;2022-12-20T02:56:04;0.00;99.90
6244;DHT22;3155;49.940;8.450;2022-12-20T02:58:56;0.00;99.90
6244;DHT22;3155;49.940;8.450;2022-12-20T03:01:30;0.00;99.90
6244;DHT22;3155;49.940;8.450;2022-12-20T03:04:01;0.00;99.90
6244;DHT22;3155;49.940;8.450;2022-12-20T03:06:28;0.00;99.90
6244;DHT22;3155;49.940;8.450;2022-12-20T03:08:56;0.00;99.90
6244;DHT22;3155;49.940;8.450;2022-12-20T03:11:23;0.10;99.90
6244;DHT22;3155;49.940;8.450;2022-12-20T03:13:49;0.10;99.90
6244;DHT22;3155;49.940;8.450;2022-12-20T03:16:16;0.20;99.90
6244;DHT22;3155;49.940;8.450;2022-12-20T03:18:43;0.20;99.90
6244;DHT22;3155;49.940;8.450;2022-12-20T03:21:11;0.20;99.90
6244;DHT22;3155;49.940;8.450;2022-12-20T03:23:38;0.30;99.90
6244;DHT22;3155;49.940;8.450;2022-12-20T03:26:07;0.30;99.90
6244;DHT22;3155;49.940;8.450;2022-12-20T03:28:34;0.40;99.90
6244;DHT22;3155;49.940;8.450;2022-12-20T03:31:00;0.40;99.90
6244;DHT22;3155;49.940;8.450;2022-12-20T03:33:28;0.40;99.90
6244;DHT22;3155;49.940;8.450;2022-12-20T03:35:54;0.40;99.90
6244;DHT22;3155;49.940;8.450;2022-12-20T03:38:21;0.40;99.90
6244;DHT22;3155;49.940;8.450;2022-12-20T03:40:47;0.40;99.90
6244;DHT22;3155;49.940;8.450;2022-12-20T03:43:14;0.40;99.90
6244;DHT22;3155;49.940;8.450;2022-12-20T03:45:41;0.40;99.90
6244;DHT22;3155;49.940;8.450;2022-12-20T03:48:08;0.40;99.90
6244;DHT22;3155;49.940;8.450;2022-12-20T03:50:34;0.40;99.90
6244;DHT22;3155;49.940;8.450;2022-12-20T03:53:05;0.40;99.90
6244;DHT22;3155;49.940;8.450;2022-12-20T03:55:45;0.40;99.90
6244;DHT22;3155;49.940;8.450;2022-12-20T03:58:12;0.40;99.90
6244;DHT22;3155;49.940;8.450;2022-12-20T04:00:39;0.40;99.90
6244;DHT22;3155;49.940;8.450;2022-12-20T04:03:05;0.30;99.90
6244;DHT22;3155;49.940;8.450;2022-12-20T04:05:32;0.40;99.90
6244;DHT22;3155;49.940;8.450;2022-12-20T04:07:59;0.30;99.90
6244;DHT22;3155;49.940;8.450;2022-12-20T04:10:26;0.30;99.90
6244;DHT22;3155;49.940;8.450;2022-12-20T04:12:55;0.30;99.90
6244;DHT22;3155;49.940;8.450;2022-12-20T04:15:22;0.20;99.90
6244;DHT22;3155;49.940;8.450;2022-12-20T04:17:49;0.20;99.90
6244;DHT22;3155;49.940;8.450;2022-12-20T04:20:16;0.20;99.90
6244;DHT22;3155;49.940;8.450;2022-12-20T04:22:47;0.20;99.90
6244;DHT22;3155;49.940;8.450;2022-12-20T04:25:15;0.20;99.90
6244;DHT22;3155;49.940;8.450;2022-12-20T04:27:43;0.20;99.90
6244;DHT22;3155;49.940;8.450;2022-12-20T04:30:10;0.20;99.90
6244;DHT22;3155;49.940;8.450;2022-12-20T04:32:37;0.10;99.90
6244;DHT22;3155;49.940;8.450;2022-12-20T04:35:04;0.10;99.90
6244;DHT22;3155;49.940;8.450;2022-12-20T04:37:31;0.10;99.90
6244;DHT22;3155;49.940;8.450;2022-12-20T04:39:58;0.10;99.90
6244;DHT22;3155;49.940;8.450;2022-12-20T04:42:25;0.00;99.90
6244;DHT22;3155;49.940;8.450;2022-12-20T04:44:52;0.00;99.90
6244;DHT22;3155;49.940;8.450;2022-12-20T04:47:24;0.00;99.90
6244;DHT22;3155;49.940;8.450;2022-12-20T04:49:51;0.00;99.90
6244;DHT22;3155;49.940;8.450;2022-12-20T04:52:17;0.10;99.90
6244;DHT22;3155;49.940;8.450;2022-12-20T04:55:11;0.10;99.90
6244;DHT22;3155;49.940;8.450;2022-12-20T04:57:37;0.10;99.90
6244;DHT22;3155;49.940;8.450;2022-12-20T05:00:07;0.20;99.90
6244;DHT22;3155;49.940;8.450;2022-12-20T05:02:34;0.30;99.90
6244;DHT22;3155;49.940;8.450;2022-12-20T05:05:01;0.30;99.90
6244;DHT22;3155;49.940;8.450;2022-12-20T05:07:28;0.30;99.90
6244;DHT22;3155;49.940;8.450;2022-12-20T05:09:55;0.40;99.90
6244;DHT22;3155;49.940;8.450;2022-12-20T05:12:22;0.40;99.90
6244;DHT22;3155;49.940;8.450;2022-12-20T05:14:48;0.40;99.90
6244;DHT22;3155;49.940;8.450;2022-12-20T05:17:15;0.40;99.90
6244;DHT22;3155;49.940;8.450;2022-12-20T05:19:42;0.40;99.90
6244;DHT22;3155;49.940;8.450;2022-12-20T05:22:10;0.40;99.90
6244;DHT22;3155;49.940;8.450;2022-12-20T05:24:55;0.40;99.90
6244;DHT22;3155;49.940;8.450;2022-12-20T05:27:41;0.50;99.90
6244;DHT22;3155;49.940;8.450;2022-12-20T05:30:08;0.60;99.90
6244;DHT22;3155;49.940;8.450;2022-12-20T05:32:35;0.70;99.90
6244;DHT22;3155;49.940;8.450;2022-12-20T05:35:02;0.60;99.90
6244;DHT22;3155;49.940;8.450;2022-12-20T05:37:29;0.60;99.90
6244;DHT22;3155;49.940;8.450;2022-12-20T05:39:56;0.60;99.90
6244;DHT22;3155;49.940;8.450;2022-12-20T05:42:22;0.60;99.90
6244;DHT22;3155;49.940;8.450;2022-12-20T05:44:49;0.60;99.90
6244;DHT22;3155;49.940;8.450;2022-12-20T05:47:16;0.50;99.90
6244;DHT22;3155;49.940;8.450;2022-12-20T05:49:43;0.50;99.90
6244;DHT22;3155;49.940;8.450;2022-12-20T05:52:10;0.50;99.90
6244;DHT22;3155;49.940;8.450;2022-12-20T05:54:36;0.50;99.90
6244;DHT22;3155;49.940;8.450;2022-12-20T05:57:03;0.50;99.90
6244;DHT22;3155;49.940;8.450;2022-12-20T05:59:30;0.50;99.90
6244;DHT22;3155;49.940;8.450;2022-12-20T06:01:57;0.50;99.90
6244;DHT22;3155;49.940;8.450;2022-12-20T06:04:24;0.50;99.90
6244;DHT22;3155;49.940;8.450;2022-12-20T06:06:51;0.50;99.90
6244;DHT22;3155;49.940;8.450;2022-12-20T06:09:20;0.50;99.90
6244;DHT22;3155;49.940;8.450;2022-12-20T06:11:46;0.50;99.90
6244;DHT22;3155;49.940;8.450;2022-12-20T06:14:13;0.50;99.90
6244;DHT22;3155;49.940;8.450;2022-12-20T06:16:40;0.50;99.90
6244;DHT22;3155;49.940;8.450;2022-12-20T06:19:06;0.50;99.90
6244;DHT22;3155;49.940;8.450;2022-12-20T06:21:34;0.50;99.90
6244;DHT22;3155;49.940;8.450;2022-12-20T06:24:01;0.50;99.90
6244;DHT22;3155;49.940;8.450;2022-12-20T06:26:28;0.50;99.90
6244;DHT22;3155;49.940;8.450;2022-12-20T06:29:03;0.50;99.90
6244;DHT22;3155;49.940;8.450;2022-12-20T06:31:32;0.40;99.90
6244;DHT22;3155;49.940;8.450;2022-12-20T06:33:59;0.50;99.90
6244;DHT22;3155;49.940;8.450;2022-12-20T06:36:27;0.50;99.90
6244;DHT22;3155;49.940;8.450;2022-12-20T06:38:54;0.50;99.90
6244;DHT22;3155;49.940;8.450;2022-12-20T06:41:20;0.60;99.90
6244;DHT22;3155;49.940;8.450;2022-12-20T06:43:47;0.60;99.90
6244;DHT22;3155;49.940;8.450;2022-12-20T06:46:14;0.70;99.90
6244;DHT22;3155;49.940;8.450;2022-12-20T06:48:41;0.60;99.90
6244;DHT22;3155;49.940;8.450;2022-12-20T06:51:10;0.60;99.90
6244;DHT22;3155;49.940;8.450;2022-12-20T06:53:37;0.70;99.90
6244;DHT22;3155;49.940;8.450;2022-12-20T06:56:04;0.80;99.90
6244;DHT22;3155;49.940;8.450;2022-12-20T06:58:31;0.80;99.90
6244;DHT22;3155;49.940;8.450;2022-12-20T07:00:57;0.90;99.90
6244;DHT22;3155;49.940;8.450;2022-12-20T07:03:28;0.90;99.90
6244;DHT22;3155;49.940;8.450;2022-12-20T07:05:55;1.00;99.90
6244;DHT22;3155;49.940;8.450;2022-12-20T07:08:22;1.00;99.90
6244;DHT22;3155;49.940;8.450;2022-12-20T07:10:50;1.00;99.90
6244;DHT22;3155;49.940;8.450;2022-12-20T07:13:18;1.00;99.90
6244;DHT22;3155;49.940;8.450;2022-12-20T07:15:45;1.00;99.90
6244;DHT22;3155;49.940;8.450;2022-12-20T07:18:12;1.00;99.90
6244;DHT22;3155;49.940;8.450;2022-12-20T07:20:39;1.00;99.90
6244;DHT22;3155;49.940;8.450;2022-12-20T07:23:06;1.00;99.90
6244;DHT22;3155;49.940;8.450;2022-12-20T07:25:32;1.00;99.90
6244;DHT22;3155;49.940;8.450;2022-12-20T07:27:59;1.00;99.90
6244;DHT22;3155;49.940;8.450;2022-12-20T07:30:26;1.00;99.90
6244;DHT22;3155;49.940;8.450;2022-12-20T07:32:53;1.00;99.90
6244;DHT22;3155;49.940;8.450;2022-12-20T07:35:20;0.90;99.90
6244;DHT22;3155;49.940;8.450;2022-12-20T07:37:46;0.90;99.90
6244;DHT22;3155;49.940;8.450;2022-12-20T07:40:13;0.90;99.90
6244;DHT22;3155;49.940;8.450;2022-12-20T07:42:41;0.90;99.90
6244;DHT22;3155;49.940;8.450;2022-12-20T07:45:14;0.90;99.90
6244;DHT22;3155;49.940;8.450;2022-12-20T07:47:41;0.90;99.90
6244;DHT22;3155;49.940;8.450;2022-12-20T07:50:09;1.00;99.90
6244;DHT22;3155;49.940;8.450;2022-12-20T07:52:39;1.00;99.90
6244;DHT22;3155;49.940;8.450;2022-12-20T07:55:07;1.00;99.90
6244;DHT22;3155;49.940;8.450;2022-12-20T07:57:47;1.00;99.90
6244;DHT22;3155;49.940;8.450;2022-12-20T08:00:15;1.00;99.90
6244;DHT22;3155;49.940;8.450;2022-12-20T08:03:09;1.00;99.90
6244;DHT22;3155;49.940;8.450;2022-12-20T08:05:41;1.00;99.90
6244;DHT22;3155;49.940;8.450;2022-12-20T08:08:09;1.10;99.90
6244;DHT22;3155;49.940;8.450;2022-12-20T08:10:38;1.10;99.90
6244;DHT22;3155;49.940;8.450;2022-12-20T08:13:05;1.20;99.90
6244;DHT22;3155;49.940;8.450;2022-12-20T08:15:34;1.20;99.90
6244;DHT22;3155;49.940;8.450;2022-12-20T08:18:01;1.30;99.90
6244;DHT22;3155;49.940;8.450;2022-12-20T08:20:28;1.40;99.90
6244;DHT22;3155;49.940;8.450;2022-12-20T08:23:04;1.50;99.90
6244;DHT22;3155;49.940;8.450;2022-12-20T08:25:31;1.60;99.90
6244;DHT22;3155;49.940;8.450;2022-12-20T08:28:07;1.80;99.90
6244;DHT22;3155;49.940;8.450;2022-12-20T08:30:34;1.90;99.90
6244;DHT22;3155;49.940;8.450;2022-12-20T08:33:00;2.10;99.90
6244;DHT22;3155;49.940;8.450;2022-12-20T08:35:30;2.10;99.90
6244;DHT22;3155;49.940;8.450;2022-12-20T08:38:00;2.00;99.90
6244;DHT22;3155;49.940;8.450;2022-12-20T08:40:26;2.00;99.90
6244;DHT22;3155;49.940;8.450;2022-12-20T08:42:53;2.00;99.90
6244;DHT22;3155;49.940;8.450;2022-12-20T08:45:20;1.90;99.90
6244;DHT22;3155;49.940;8.450;2022-12-20T08:47:46;1.80;99.90
6244;DHT22;3155;49.940;8.450;2022-12-20T08:50:14;1.80;99.90
6244;DHT22;3155;49.940;8.450;2022-12-20T08:52:41;1.90;99.90
6244;DHT22;3155;49.940;8.450;2022-12-20T08:55:10;1.90;99.90
6244;DHT22;3155;49.940;8.450;2022-12-20T08:57:38;1.90;99.90
6244;DHT22;3155;49.940;8.450;2022-12-20T09:00:06;2.00;99.90
6244;DHT22;3155;49.940;8.450;2022-12-20T09:02:33;2.00;99.90
6244;DHT22;3155;49.940;8.450;2022-12-20T09:05:00;2.10;99.90
6244;DHT22;3155;49.940;8.450;2022-12-20T09:07:27;2.20;99.90
6244;DHT22;3155;49.940;8.450;2022-12-20T09:09:54;2.20;99.90
6244;DHT22;3155;49.940;8.450;2022-12-20T09:12:21;2.20;99.90
6244;DHT22;3155;49.940;8.450;2022-12-20T09:14:48;2.30;99.90
6244;DHT22;3155;49.940;8.450;2022-12-20T09:17:15;2.40;99.90
6244;DHT22;3155;49.940;8.450;2022-12-20T09:19:43;2.50;99.90
6244;DHT22;3155;49.940;8.450;2022-12-20T09:22:10;2.60;99.90
6244;DHT22;3155;49.940;8.450;2022-12-20T09:24:37;2.60;99.90
6244;DHT22;3155;49.940;8.450;2022-12-20T09:27:03;2.60;99.90
6244;DHT22;3155;49.940;8.450;2022-12-20T09:29:34;2.70;99.90
6244;DHT22;3155;49.940;8.450;2022-12-20T09:32:02;2.70;99.90
6244;DHT22;3155;49.940;8.450;2022-12-20T09:34:28;2.80;99.90
6244;DHT22;3155;49.940;8.450;2022-12-20T09:36:55;2.80;99.90
6244;DHT22;3155;49.940;8.450;2022-12-20T09:39:22;2.90;99.90
6244;DHT22;3155;49.940;8.450;2022-12-20T09:41:49;3.00;99.90
6244;DHT22;3155;49.940;8.450;2022-12-20T09:44:30;3.00;99.90
6244;DHT22;3155;49.940;8.450;2022-12-20T09:47:02;3.00;99.90
6244;DHT22;3155;49.940;8.450;2022-12-20T09:49:39;3.00;99.90
6244;DHT22;3155;49.940;8.450;2022-12-20T10:01:13;3.30;99.90
6244;DHT22;3155;49.940;8.450;2022-12-20T10:03:43;3.30;99.90
6244;DHT22;3155;49.940;8.450;2022-12-20T10:06:32;3.30;99.90
6244;DHT22;3155;49.940;8.450;2022-12-20T10:09:08;3.40;99.90
6244;DHT22;3155;49.940;8.450;2022-12-20T10:20:26;3.50;99.90
6244;DHT22;3155;49.940;8.450;2022-12-20T10:25:59;3.70;99.90
6244;DHT22;3155;49.940;8.450;2022-12-20T10:28:33;3.70;99.90
6244;DHT22;3155;49.940;8.450;2022-12-20T10:31:05;3.70;99.90
6244;DHT22;3155;49.940;8.450;2022-12-20T10:33:33;3.70;99.90
6244;DHT22;3155;49.940;8.450;2022-12-20T10:38:50;3.70;99.90
6244;DHT22;3155;49.940;8.450;2022-12-20T10:41:19;3.80;99.90
6244;DHT22;3155;49.940;8.450;2022-12-20T10:46:51;3.80;99.90
6244;DHT22;3155;49.940;8.450;2022-12-20T10:49:38;3.90;99.90
6244;DHT22;3155;49.940;8.450;2022-12-20T10:54:45;4.00;99.90
6244;DHT22;3155;49.940;8.450;2022-12-20T10:57:21;4.20;99.90
6244;DHT22;3155;49.940;8.450;2022-12-20T10:59:57;4.40;99.90
6244;DHT22;3155;49.940;8.450;2022-12-20T11:02:32;4.50;99.90
6244;DHT22;3155;49.940;8.450;2022-12-20T11:07:59;4.60;99.90
6244;DHT22;3155;49.940;8.450;2022-12-20T11:10:46;4.70;99.90
6244;DHT22;3155;49.940;8.450;2022-12-20T11:13:24;4.80;99.90
6244;DHT22;3155;49.940;8.450;2022-12-20T11:15:54;4.90;99.90
6244;DHT22;3155;49.940;8.450;2022-12-20T11:18:33;5.10;99.90
6244;DHT22;3155;49.940;8.450;2022-12-20T11:23:42;5.30;99.90
6244;DHT22;3155;49.940;8.450;2022-12-20T11:31:56;5.80;99.90
6244;DHT22;3155;49.940;8.450;2022-12-20T11:34:38;5.90;99.90
6244;DHT22;3155;49.940;8.450;2022-12-20T11:37:24;6.10;99.90
6244;DHT22;3155;49.940;8.450;2022-12-20T11:43:16;6.20;99.90
6244;DHT22;3155;49.940;8.450;2022-12-20T11:51:54;5.80;99.90
6244;DHT22;3155;49.940;8.450;2022-12-20T11:54:27;5.50;99.90
6244;DHT22;3155;49.940;8.450;2022-12-20T11:57:03;5.30;99.90
6244;DHT22;3155;49.940;8.450;2022-12-20T11:59:46;5.20;99.90
6244;DHT22;3155;49.940;8.450;2022-12-20T12:02:27;5.20;99.90
6244;DHT22;3155;49.940;8.450;2022-12-20T12:05:20;5.30;99.90
6244;DHT22;3155;49.940;8.450;2022-12-20T12:08:00;5.40;99.90
6244;DHT22;3155;49.940;8.450;2022-12-20T12:10:33;5.50;99.90
6244;DHT22;3155;49.940;8.450;2022-12-20T12:13:16;5.60;99.90
6244;DHT22;3155;49.940;8.450;2022-12-20T12:15:54;5.70;99.90
6244;DHT22;3155;49.940;8.450;2022-12-20T12:18:26;5.60;99.90
6244;DHT22;3155;49.940;8.450;2022-12-20T12:26:44;5.40;99.90
6244;DHT22;3155;49.940;8.450;2022-12-20T12:29:12;5.40;99.90
6244;DHT22;3155;49.940;8.450;2022-12-20T12:31:56;5.30;99.90
6244;DHT22;3155;49.940;8.450;2022-12-20T12:37:31;5.10;99.90
6244;DHT22;3155;49.940;8.450;2022-12-20T12:45:27;4.80;99.90
6244;DHT22;3155;49.940;8.450;2022-12-20T12:47:59;4.80;99.90
6244;DHT22;3155;49.940;8.450;2022-12-20T12:50:31;4.80;99.90
6244;DHT22;3155;49.940;8.450;2022-12-20T12:53:05;4.90;99.90
6244;DHT22;3155;49.940;8.450;2022-12-20T12:55:53;5.10;99.90
6244;DHT22;3155;49.940;8.450;2022-12-20T12:58:40;5.20;99.90
6244;DHT22;3155;49.940;8.450;2022-12-20T13:11:55;5.40;99.90
6244;DHT22;3155;49.940;8.450;2022-12-20T13:19:52;5.70;99.90
6244;DHT22;3155;49.940;8.450;2022-12-20T13:22:23;5.70;99.90
6244;DHT22;3155;49.940;8.450;2022-12-20T13:24:58;5.80;99.90
6244;DHT22;3155;49.940;8.450;2022-12-20T13:27:29;5.80;99.90
6244;DHT22;3155;49.940;8.450;2022-12-20T13:40:41;6.10;99.90
6244;DHT22;3155;49.940;8.450;2022-12-20T13:45:54;5.90;99.90
6244;DHT22;3155;49.940;8.450;2022-12-20T13:48:29;5.80;99.90
6244;DHT22;3155;49.940;8.450;2022-12-20T13:50:59;5.80;99.90
6244;DHT22;3155;49.940;8.450;2022-12-20T13:53:26;5.80;99.90
6244;DHT22;3155;49.940;8.450;2022-12-20T13:55:54;5.80;99.90
6244;DHT22;3155;49.940;8.450;2022-12-20T13:58:27;5.80;99.90
6244;DHT22;3155;49.940;8.450;2022-12-20T14:01:06;6.00;99.90
6244;DHT22;3155;49.940;8.450;2022-12-20T14:03:43;6.00;99.90
6244;DHT22;3155;49.940;8.450;2022-12-20T14:06:13;6.10;99.90
6244;DHT22;3155;49.940;8.450;2022-12-20T14:08:44;6.10;99.90
6244;DHT22;3155;49.940;8.450;2022-12-20T14:11:13;6.10;99.90
6244;DHT22;3155;49.940;8.450;2022-12-20T14:13:41;6.20;99.90
6244;DHT22;3155;49.940;8.450;2022-12-20T14:16:16;6.10;99.90
6244;DHT22;3155;49.940;8.450;2022-12-20T14:18:59;6.00;99.90
6244;DHT22;3155;49.940;8.450;2022-12-20T14:21:29;5.70;99.90
6244;DHT22;3155;49.940;8.450;2022-12-20T14:23:57;5.50;99.90
6244;DHT22;3155;49.940;8.450;2022-12-20T14:26:35;5.20;99.90
6244;DHT22;3155;49.940;8.450;2022-12-20T14:29:10;5.00;99.90
6244;DHT22;3155;49.940;8.450;2022-12-20T14:31:42;4.90;99.90
6244;DHT22;3155;49.940;8.450;2022-12-20T14:36:42;4.70;99.90
6244;DHT22;3155;49.940;8.450;2022-12-20T14:44:35;4.60;99.90
6244;DHT22;3155;49.940;8.450;2022-12-20T14:47:13;4.60;99.90
6244;DHT22;3155;49.940;8.450;2022-12-20T14:49:48;4.60;99.90
6244;DHT22;3155;49.940;8.450;2022-12-20T14:52:19;4.50;99.90
6244;DHT22;3155;49.940;8.450;2022-12-20T14:55:15;4.50;99.90
6244;DHT22;3155;49.940;8.450;2022-12-20T14:57:48;4.50;99.90
6244;DHT22;3155;49.940;8.450;2022-12-20T15:08:25;4.30;99.90
6244;DHT22;3155;49.940;8.450;2022-12-20T15:11:22;4.30;99.90
6244;DHT22;3155;49.940;8.450;2022-12-20T15:13:52;4.20;99.90
6244;DHT22;3155;49.940;8.450;2022-12-20T15:16:22;4.20;99.90
6244;DHT22;3155;49.940;8.450;2022-12-20T15:18:52;4.10;99.90
6244;DHT22;3155;49.940;8.450;2022-12-20T15:23:59;4.10;99.90
6244;DHT22;3155;49.940;8.450;2022-12-20T15:26:29;4.10;99.90
6244;DHT22;3155;49.940;8.450;2022-12-20T15:28:56;4.10;99.90
6244;DHT22;3155;49.940;8.450;2022-12-20T15:31:24;4.20;99.90
6244;DHT22;3155;49.940;8.450;2022-12-20T15:34:02;4.10;99.90
6244;DHT22;3155;49.940;8.450;2022-12-20T15:36:30;4.10;99.90
6244;DHT22;3155;49.940;8.450;2022-12-20T15:38:58;4.10;99.90
6244;DHT22;3155;49.940;8.450;2022-12-20T15:41:41;4.00;99.90
6244;DHT22;3155;49.940;8.450;2022-12-20T15:44:35;4.00;99.90
6244;DHT22;3155;49.940;8.450;2022-12-20T15:47:02;3.90;99.90
6244;DHT22;3155;49.940;8.450;2022-12-20T15:49:31;4.00;99.90
6244;DHT22;3155;49.940;8.450;2022-12-20T15:51:58;3.90;99.90
6244;DHT22;3155;49.940;8.450;2022-12-20T15:54:29;3.90;99.90
6244;DHT22;3155;49.940;8.450;2022-12-20T15:56:58;3.90;99.90
6244;DHT22;3155;49.940;8.450;2022-12-20T15:59:28;3.90;99.90
6244;DHT22;3155;49.940;8.450;2022-12-20T16:02:23;3.90;99.90
6244;DHT22;3155;49.940;8.450;2022-12-20T16:04:52;3.90;99.90
6244;DHT22;3155;49.940;8.450;2022-12-20T16:07:19;3.80;99.90
6244;DHT22;3155;49.940;8.450;2022-12-20T16:09:46;3.80;99.90
6244;DHT22;3155;49.940;8.450;2022-12-20T16:12:16;3.80;99.90
6244;DHT22;3155;49.940;8.450;2022-12-20T16:14:44;3.80;99.90
6244;DHT22;3155;49.940;8.450;2022-12-20T16:17:14;3.80;99.90
6244;DHT22;3155;49.940;8.450;2022-12-20T16:19:42;3.80;99.90
6244;DHT22;3155;49.940;8.450;2022-12-20T16:22:15;4.00;99.90
6244;DHT22;3155;49.940;8.450;2022-12-20T16:24:43;4.00;99.90
6244;DHT22;3155;49.940;8.450;2022-12-20T16:27:10;3.90;99.90
6244;DHT22;3155;49.940;8.450;2022-12-20T16:29:36;4.00;99.90
6244;DHT22;3155;49.940;8.450;2022-12-20T16:32:12;3.90;99.90
6244;DHT22;3155;49.940;8.450;2022-12-20T16:34:43;3.90;99.90
6244;DHT22;3155;49.940;8.450;2022-12-20T16:37:11;4.00;99.90
6244;DHT22;3155;49.940;8.450;2022-12-20T16:39:38;3.90;99.90
6244;DHT22;3155;49.940;8.450;2022-12-20T16:42:15;3.90;99.90
6244;DHT22;3155;49.940;8.450;2022-12-20T16:44:50;3.90;99.90
6244;DHT22;3155;49.940;8.450;2022-12-20T16:47:17;3.90;99.90
6244;DHT22;3155;49.940;8.450;2022-12-20T16:49:44;3.90;99.90
6244;DHT22;3155;49.940;8.450;2022-12-20T16:52:24;3.90;99.90
6244;DHT22;3155;49.940;8.450;2022-12-20T16:54:51;3.90;99.90
6244;DHT22;3155;49.940;8.450;2022-12-20T16:57:18;4.00;99.90
6244;DHT22;3155;49.940;8.450;2022-12-20T16:59:49;3.90;99.90
6244;DHT22;3155;49.940;8.450;2022-12-20T17:04:51;3.90;99.90
6244;DHT22;3155;49.940;8.450;2022-12-20T17:07:17;3.90;99.90
6244;DHT22;3155;49.940;8.450;2022-12-20T17:09:44;3.80;99.90
6244;DHT22;3155;49.940;8.450;2022-12-20T17:12:15;3.80;99.90
6244;DHT22;3155;49.940;8.450;2022-12-20T17:14:43;3.80;99.90
6244;DHT22;3155;49.940;8.450;2022-12-20T17:17:10;3.90;99.90
6244;DHT22;3155;49.940;8.450;2022-12-20T17:19:37;3.90;99.90
6244;DHT22;3155;49.940;8.450;2022-12-20T17:22:05;3.90;99.90
6244;DHT22;3155;49.940;8.450;2022-12-20T17:24:50;3.80;99.90
6244;DHT22;3155;49.940;8.450;2022-12-20T17:27:19;3.90;99.90
6244;DHT22;3155;49.940;8.450;2022-12-20T17:29:46;3.90;99.90
6244;DHT22;3155;49.940;8.450;2022-12-20T17:32:18;3.80;99.90
6244;DHT22;3155;49.940;8.450;2022-12-20T17:34:55;3.80;99.90
6244;DHT22;3155;49.940;8.450;2022-12-20T17:37:22;3.80;99.90
6244;DHT22;3155;49.940;8.450;2022-12-20T17:39:50;3.70;99.90
6244;DHT22;3155;49.940;8.450;2022-12-20T17:42:16;3.70;99.90
6244;DHT22;3155;49.940;8.450;2022-12-20T17:44:43;3.70;99.90
6244;DHT22;3155;49.940;8.450;2022-12-20T17:47:11;3.70;99.90
6244;DHT22;3155;49.940;8.450;2022-12-20T17:49:38;3.70;99.90
6244;DHT22;3155;49.940;8.450;2022-12-20T17:52:14;3.70;99.90
6244;DHT22;3155;49.940;8.450;2022-12-20T17:54:41;3.80;99.90
6244;DHT22;3155;49.940;8.450;2022-12-20T17:57:13;3.80;99.90
6244;DHT22;3155;49.940;8.450;2022-12-20T17:59:41;3.80;99.90
6244;DHT22;3155;49.940;8.450;2022-12-20T18:02:19;3.90;99.90
6244;DHT22;3155;49.940;8.450;2022-12-20T18:04:48;3.80;99.90
6244;DHT22;3155;49.940;8.450;2022-12-20T18:07:16;3.70;99.90
6244;DHT22;3155;49.940;8.450;2022-12-20T18:09:45;3.70;99.90
6244;DHT22;3155;49.940;8.450;2022-12-20T18:12:13;3.70;99.90
6244;DHT22;3155;49.940;8.450;2022-12-20T18:14:39;3.60;99.90
6244;DHT22;3155;49.940;8.450;2022-12-20T18:17:06;3.50;99.90
6244;DHT22;3155;49.940;8.450;2022-12-20T18:19:33;3.50;99.90
6244;DHT22;3155;49.940;8.450;2022-12-20T18:22:00;3.50;99.90
6244;DHT22;3155;49.940;8.450;2022-12-20T18:24:26;3.40;99.90
6244;DHT22;3155;49.940;8.450;2022-12-20T18:26:53;3.40;99.90
6244;DHT22;3155;49.940;8.450;2022-12-20T18:29:20;3.30;99.90
6244;DHT22;3155;49.940;8.450;2022-12-20T18:31:47;3.30;99.90
6244;DHT22;3155;49.940;8.450;2022-12-20T18:34:13;3.30;99.90
6244;DHT22;3155;49.940;8.450;2022-12-20T18:36:42;3.20;99.90
6244;DHT22;3155;49.940;8.450;2022-12-20T18:39:11;3.20;99.90
6244;DHT22;3155;49.940;8.450;2022-12-20T18:41:38;3.20;99.90
6244;DHT22;3155;49.940;8.450;2022-12-20T18:44:11;3.20;99.90
6244;DHT22;3155;49.940;8.450;2022-12-20T18:46:38;3.20;99.90
6244;DHT22;3155;49.940;8.450;2022-12-20T18:49:04;3.20;99.90